sensor_id;sensor_type;location;lat;lon;timestamp;P1;durP1;ratioP1;P2;durP2;ratioP2
3141;SDS011;1581;51.568;6.998;2022-12-10T00:01:45;69.30;;;33.47;;
3141;SDS011;1581;51.568;6.998;2022-12-10T00:04:15;75.57;;;36.33;;
3141;SDS011;1581;51.568;6.998;2022-12-10T00:06:43;71.27;;;35.77;;
3141;SDS011;1581;51.568;6.998;2022-12-10T00:09:11;70.00;;;35.07;;
3141;SDS011;1581;51.568;6.998;2022-12-10T00:11:45;62.10;;;33.13;;
3141;SDS011;1581;51.568;6.998;2022-12-10T00:14:13;69.33;;;34.97;;
3141;SDS011;1581;51.568;6.998;2022-12-10T00:16:41;71.50;;;34.90;;
3141;SDS011;1581;51.568;6.998;2022-12-10T00:19:10;68.83;;;33.60;;
3141;SDS011;1581;51.568;6.998;2022-12-10T00:21:40;67.53;;;33.80;;
3141;SDS011;1581;51.568;6.998;2022-12-10T00:24:18;68.83;;;34.53;;
3141;SDS011;1581;51.568;6.998;2022-12-10T00:26:51;71.77;;;35.77;;
3141;SDS011;1581;51.568;6.998;2022-12-10T00:29:21;66.47;;;32.77;;
3141;SDS011;1581;51.568;6.998;2022-12-10T00:31:48;61.53;;;31.90;;
3141;SDS011;1581;51.568;6.998;2022-12-10T00:34:16;68.47;;;33.53;;
3141;SDS011;1581;51.568;6.998;2022-12-10T00:36:47;62.03;;;32.50;;
3141;SDS011;1581;51.568;6.998;2022-12-10T00:39:18;63.73;;;34.10;;
3141;SDS011;1581;51.568;6.998;2022-12-10T00:41:49;69.83;;;32.37;;
3141;SDS011;1581;51.568;6.998;2022-12-10T00:44:18;57.87;;;31.23;;
3141;SDS011;1581;51.568;6.998;2022-12-10T00:46:46;61.77;;;31.10;;
3141;SDS011;1581;51.568;6.998;2022-12-10T00:49:15;62.43;;;32.37;;
3141;SDS011;1581;51.568;6.998;2022-12-10T00:51:46;54.20;;;29.93;;
3141;SDS011;1581;51.568;6.998;2022-12-10T00:54:18;59.63;;;32.10;;
3141;SDS011;1581;51.568;6.998;2022-12-10T00:56:46;58.83;;;30.90;;
3141;SDS011;1581;51.568;6.998;2022-12-10T00:59:16;57.93;;;29.83;;
3141;SDS011;1581;51.568;6.998;2022-12-10T01:01:45;61.47;;;31.27;;
3141;SDS011;1581;51.568;6.998;2022-12-10T01:04:15;63.07;;;31.53;;
3141;SDS011;1581;51.568;6.998;2022-12-10T01:06:51;57.83;;;29.30;;
3141;SDS011;1581;51.568;6.998;2022-12-10T01:09:21;60.77;;;30.40;;
3141;SDS011;1581;51.568;6.998;2022-12-10T01:11:51;66.60;;;31.70;;
3141;SDS011;1581;51.568;6.998;2022-12-10T01:14:21;61.73;;;30.70;;
3141;SDS011;1581;51.568;6.998;2022-12-10T01:16:58;52.90;;;30.17;;
3141;SDS011;1581;51.568;6.998;2022-12-10T01:19:29;58.17;;;29.07;;
3141;SDS011;1581;51.568;6.998;2022-12-10T01:21:59;61.57;;;29.97;;
3141;SDS011;1581;51.568;6.998;2022-12-10T01:24:28;57.70;;;30.90;;
3141;SDS011;1581;51.568;6.998;2022-12-10T01:26:56;61.50;;;30.57;;
3141;SDS011;1581;51.568;6.998;2022-12-10T01:29:26;59.63;;;28.50;;
3141;SDS011;1581;51.568;6.998;2022-12-10T01:31:54;57.07;;;29.93;;
3141;SDS011;1581;51.568;6.998;2022-12-10T01:34:25;60.37;;;29.20;;
3141;SDS011;1581;51.568;6.998;2022-12-10T01:36:56;58.33;;;29.27;;
3141;SDS011;1581;51.568;6.998;2022-12-10T01:39:25;54.00;;;28.63;;
3141;SDS011;1581;51.568;6.998;2022-12-10T01:41:56;56.93;;;29.93;;
3141;SDS011;1581;51.568;6.998;2022-12-10T01:47:34;55.30;;;28.17;;
3141;SDS011;1581;51.568;6.998;2022-12-10T01:50:05;61.50;;;29.43;;
3141;SDS011;1581;51.568;6.998;2022-12-10T01:52:39;56.63;;;29.20;;
3141;SDS011;1581;51.568;6.998;2022-12-10T01:58:10;61.50;;;30.70;;
3141;SDS011;1581;51.568;6.998;2022-12-10T02:00:41;63.83;;;33.57;;
3141;SDS011;1581;51.568;6.998;2022-12-10T02:03:25;58.53;;;29.47;;
3141;SDS011;1581;51.568;6.998;2022-12-10T02:06:04;60.93;;;30.20;;
3141;SDS011;1581;51.568;6.998;2022-12-10T02:08:57;61.43;;;29.87;;
3141;SDS011;1581;51.568;6.998;2022-12-10T02:11:39;60.90;;;30.40;;
3141;SDS011;1581;51.568;6.998;2022-12-10T02:14:17;57.13;;;30.03;;
3141;SDS011;1581;51.568;6.998;2022-12-10T02:17:01;56.23;;;28.60;;
3141;SDS011;1581;51.568;6.998;2022-12-10T02:19:42;53.83;;;29.50;;
3141;SDS011;1581;51.568;6.998;2022-12-10T02:22:28;54.67;;;28.20;;
3141;SDS011;1581;51.568;6.998;2022-12-10T02:25:03;65.30;;;30.77;;
3141;SDS011;1581;51.568;6.998;2022-12-10T02:27:38;58.90;;;30.00;;
3141;SDS011;1581;51.568;6.998;2022-12-10T02:30:17;57.70;;;29.17;;
3141;SDS011;1581;51.568;6.998;2022-12-10T02:32:46;63.97;;;27.87;;
3141;SDS011;1581;51.568;6.998;2022-12-10T02:35:22;59.93;;;28.70;;
3141;SDS011;1581;51.568;6.998;2022-12-10T02:37:55;54.83;;;28.20;;
3141;SDS011;1581;51.568;6.998;2022-12-10T02:40:27;58.50;;;28.73;;
3141;SDS011;1581;51.568;6.998;2022-12-10T02:43:00;54.50;;;28.40;;
3141;SDS011;1581;51.568;6.998;2022-12-10T02:45:30;56.80;;;29.20;;
3141;SDS011;1581;51.568;6.998;2022-12-10T02:48:01;54.47;;;29.27;;
3141;SDS011;1581;51.568;6.998;2022-12-10T02:50:30;58.33;;;28.03;;
3141;SDS011;1581;51.568;6.998;2022-12-10T02:52:58;55.47;;;27.83;;
3141;SDS011;1581;51.568;6.998;2022-12-10T02:55:26;56.00;;;28.83;;
3141;SDS011;1581;51.568;6.998;2022-12-10T02:58:02;58.00;;;27.43;;
3141;SDS011;1581;51.568;6.998;2022-12-10T03:00:41;53.57;;;28.30;;
3141;SDS011;1581;51.568;6.998;2022-12-10T03:03:28;58.00;;;28.73;;
3141;SDS011;1581;51.568;6.998;2022-12-10T03:06:11;59.50;;;28.90;;
3141;SDS011;1581;51.568;6.998;2022-12-10T03:08:47;58.47;;;29.80;;
3141;SDS011;1581;51.568;6.998;2022-12-10T03:11:19;49.47;;;26.57;;
3141;SDS011;1581;51.568;6.998;2022-12-10T03:13:52;52.77;;;28.70;;
3141;SDS011;1581;51.568;6.998;2022-12-10T03:16:28;59.63;;;29.10;;
3141;SDS011;1581;51.568;6.998;2022-12-10T03:19:02;60.33;;;29.57;;
3141;SDS011;1581;51.568;6.998;2022-12-10T03:21:36;58.03;;;29.70;;
3141;SDS011;1581;51.568;6.998;2022-12-10T03:24:07;57.67;;;30.20;;
3141;SDS011;1581;51.568;6.998;2022-12-10T03:26:37;60.93;;;32.13;;
3141;SDS011;1581;51.568;6.998;2022-12-10T03:29:06;55.90;;;28.90;;
3141;SDS011;1581;51.568;6.998;2022-12-10T03:31:40;57.63;;;30.50;;
3141;SDS011;1581;51.568;6.998;2022-12-10T03:34:09;57.40;;;29.83;;
3141;SDS011;1581;51.568;6.998;2022-12-10T03:36:38;52.37;;;27.27;;
3141;SDS011;1581;51.568;6.998;2022-12-10T03:39:07;55.80;;;29.30;;
3141;SDS011;1581;51.568;6.998;2022-12-10T03:41:35;56.50;;;27.30;;
3141;SDS011;1581;51.568;6.998;2022-12-10T03:44:03;53.83;;;27.13;;
3141;SDS011;1581;51.568;6.998;2022-12-10T03:46:31;48.53;;;27.20;;
3141;SDS011;1581;51.568;6.998;2022-12-10T03:49:03;48.60;;;26.33;;
3141;SDS011;1581;51.568;6.998;2022-12-10T03:51:31;52.40;;;27.80;;
3141;SDS011;1581;51.568;6.998;2022-12-10T03:53:59;55.80;;;28.70;;
3141;SDS011;1581;51.568;6.998;2022-12-10T03:56:26;55.47;;;28.47;;
3141;SDS011;1581;51.568;6.998;2022-12-10T03:58:54;61.67;;;29.10;;
3141;SDS011;1581;51.568;6.998;2022-12-10T04:01:21;59.83;;;32.30;;
3141;SDS011;1581;51.568;6.998;2022-12-10T04:03:49;61.40;;;32.13;;
3141;SDS011;1581;51.568;6.998;2022-12-10T04:06:20;62.43;;;30.53;;
3141;SDS011;1581;51.568;6.998;2022-12-10T04:08:47;69.80;;;32.70;;
3141;SDS011;1581;51.568;6.998;2022-12-10T04:11:15;58.47;;;30.90;;
3141;SDS011;1581;51.568;6.998;2022-12-10T04:13:43;61.80;;;29.40;;
3141;SDS011;1581;51.568;6.998;2022-12-10T04:16:28;50.13;;;27.07;;
3141;SDS011;1581;51.568;6.998;2022-12-10T04:18:58;57.93;;;29.70;;
3141;SDS011;1581;51.568;6.998;2022-12-10T04:21:30;64.77;;;30.27;;
3141;SDS011;1581;51.568;6.998;2022-12-10T04:24:18;57.60;;;30.00;;
3141;SDS011;1581;51.568;6.998;2022-12-10T04:27:05;61.13;;;30.80;;
3141;SDS011;1581;51.568;6.998;2022-12-10T04:29:36;56.37;;;28.57;;
3141;SDS011;1581;51.568;6.998;2022-12-10T04:32:05;51.93;;;28.10;;
3141;SDS011;1581;51.568;6.998;2022-12-10T04:34:32;56.60;;;28.37;;
3141;SDS011;1581;51.568;6.998;2022-12-10T04:37:02;56.70;;;28.93;;
3141;SDS011;1581;51.568;6.998;2022-12-10T04:39:30;62.40;;;28.23;;
3141;SDS011;1581;51.568;6.998;2022-12-10T04:41:58;55.73;;;27.60;;
3141;SDS011;1581;51.568;6.998;2022-12-10T04:44:27;55.80;;;29.10;;
3141;SDS011;1581;51.568;6.998;2022-12-10T04:46:54;58.33;;;28.30;;
3141;SDS011;1581;51.568;6.998;2022-12-10T04:49:22;53.03;;;27.77;;
3141;SDS011;1581;51.568;6.998;2022-12-10T04:51:50;50.20;;;27.63;;
3141;SDS011;1581;51.568;6.998;2022-12-10T04:54:20;57.37;;;29.30;;
3141;SDS011;1581;51.568;6.998;2022-12-10T04:56:47;54.80;;;27.73;;
3141;SDS011;1581;51.568;6.998;2022-12-10T04:59:15;57.03;;;29.30;;
3141;SDS011;1581;51.568;6.998;2022-12-10T05:01:43;62.20;;;27.40;;
3141;SDS011;1581;51.568;6.998;2022-12-10T05:04:11;49.37;;;26.20;;
3141;SDS011;1581;51.568;6.998;2022-12-10T05:06:41;56.93;;;27.10;;
3141;SDS011;1581;51.568;6.998;2022-12-10T05:09:09;56.50;;;27.87;;
3141;SDS011;1581;51.568;6.998;2022-12-10T05:11:39;55.57;;;29.23;;
3141;SDS011;1581;51.568;6.998;2022-12-10T05:14:08;53.53;;;27.13;;
3141;SDS011;1581;51.568;6.998;2022-12-10T05:16:37;52.60;;;27.30;;
3141;SDS011;1581;51.568;6.998;2022-12-10T05:19:05;58.27;;;28.20;;
3141;SDS011;1581;51.568;6.998;2022-12-10T05:21:33;55.40;;;27.30;;
3141;SDS011;1581;51.568;6.998;2022-12-10T05:24:19;49.47;;;25.40;;
3141;SDS011;1581;51.568;6.998;2022-12-10T05:26:57;54.23;;;26.80;;
3141;SDS011;1581;51.568;6.998;2022-12-10T05:29:25;52.33;;;26.80;;
3141;SDS011;1581;51.568;6.998;2022-12-10T05:31:52;50.90;;;27.27;;
3141;SDS011;1581;51.568;6.998;2022-12-10T05:34:20;54.20;;;27.67;;
3141;SDS011;1581;51.568;6.998;2022-12-10T05:36:48;51.80;;;27.03;;
3141;SDS011;1581;51.568;6.998;2022-12-10T05:39:15;57.27;;;28.20;;
3141;SDS011;1581;51.568;6.998;2022-12-10T05:41:43;49.10;;;26.33;;
3141;SDS011;1581;51.568;6.998;2022-12-10T05:44:12;50.93;;;28.83;;
3141;SDS011;1581;51.568;6.998;2022-12-10T05:46:39;54.27;;;28.20;;
3141;SDS011;1581;51.568;6.998;2022-12-10T05:49:07;57.97;;;31.50;;
3141;SDS011;1581;51.568;6.998;2022-12-10T05:51:38;60.10;;;29.43;;
3141;SDS011;1581;51.568;6.998;2022-12-10T05:54:10;59.50;;;28.73;;
3141;SDS011;1581;51.568;6.998;2022-12-10T05:56:39;59.37;;;28.70;;
3141;SDS011;1581;51.568;6.998;2022-12-10T05:59:09;51.87;;;27.87;;
3141;SDS011;1581;51.568;6.998;2022-12-10T06:01:38;52.87;;;26.57;;
3141;SDS011;1581;51.568;6.998;2022-12-10T06:04:06;59.97;;;29.70;;
3141;SDS011;1581;51.568;6.998;2022-12-10T06:06:36;53.20;;;26.53;;
3141;SDS011;1581;51.568;6.998;2022-12-10T06:09:05;55.77;;;29.00;;
3141;SDS011;1581;51.568;6.998;2022-12-10T06:11:37;57.40;;;28.27;;
3141;SDS011;1581;51.568;6.998;2022-12-10T06:14:05;49.97;;;27.07;;
3141;SDS011;1581;51.568;6.998;2022-12-10T06:16:34;54.13;;;30.07;;
3141;SDS011;1581;51.568;6.998;2022-12-10T06:19:01;59.70;;;29.43;;
3141;SDS011;1581;51.568;6.998;2022-12-10T06:21:29;57.90;;;28.20;;
3141;SDS011;1581;51.568;6.998;2022-12-10T06:23:57;59.23;;;29.10;;
3141;SDS011;1581;51.568;6.998;2022-12-10T06:26:25;52.47;;;27.77;;
3141;SDS011;1581;51.568;6.998;2022-12-10T06:28:52;54.93;;;26.93;;
3141;SDS011;1581;51.568;6.998;2022-12-10T06:31:21;60.93;;;29.80;;
3141;SDS011;1581;51.568;6.998;2022-12-10T06:33:53;54.80;;;27.23;;
3141;SDS011;1581;51.568;6.998;2022-12-10T06:36:23;60.30;;;27.90;;
3141;SDS011;1581;51.568;6.998;2022-12-10T06:38:51;46.70;;;26.30;;
3141;SDS011;1581;51.568;6.998;2022-12-10T06:41:18;52.00;;;28.27;;
3141;SDS011;1581;51.568;6.998;2022-12-10T06:43:46;54.77;;;28.60;;
3141;SDS011;1581;51.568;6.998;2022-12-10T06:46:15;54.87;;;28.30;;
3141;SDS011;1581;51.568;6.998;2022-12-10T06:48:45;68.17;;;30.17;;
3141;SDS011;1581;51.568;6.998;2022-12-10T06:51:17;73.50;;;34.63;;
3141;SDS011;1581;51.568;6.998;2022-12-10T06:53:45;76.00;;;34.10;;
3141;SDS011;1581;51.568;6.998;2022-12-10T06:56:14;77.00;;;36.23;;
3141;SDS011;1581;51.568;6.998;2022-12-10T06:58:44;97.70;;;37.20;;
3141;SDS011;1581;51.568;6.998;2022-12-10T07:01:15;95.97;;;37.97;;
3141;SDS011;1581;51.568;6.998;2022-12-10T07:03:47;97.60;;;39.23;;
3141;SDS011;1581;51.568;6.998;2022-12-10T07:06:17;86.10;;;38.93;;
3141;SDS011;1581;51.568;6.998;2022-12-10T07:08:47;93.27;;;37.70;;
3141;SDS011;1581;51.568;6.998;2022-12-10T07:11:15;89.53;;;36.30;;
3141;SDS011;1581;51.568;6.998;2022-12-10T07:13:45;93.23;;;37.70;;
3141;SDS011;1581;51.568;6.998;2022-12-10T07:16:14;87.57;;;35.33;;
3141;SDS011;1581;51.568;6.998;2022-12-10T07:18:43;81.83;;;35.87;;
3141;SDS011;1581;51.568;6.998;2022-12-10T07:21:12;85.70;;;36.60;;
3141;SDS011;1581;51.568;6.998;2022-12-10T07:23:43;80.37;;;33.03;;
3141;SDS011;1581;51.568;6.998;2022-12-10T07:26:11;77.77;;;34.90;;
3141;SDS011;1581;51.568;6.998;2022-12-10T07:28:42;75.70;;;33.90;;
3141;SDS011;1581;51.568;6.998;2022-12-10T07:31:10;80.80;;;34.20;;
3141;SDS011;1581;51.568;6.998;2022-12-10T07:33:39;81.43;;;33.00;;
3141;SDS011;1581;51.568;6.998;2022-12-10T07:36:08;82.33;;;35.13;;
3141;SDS011;1581;51.568;6.998;2022-12-10T07:38:38;75.93;;;32.67;;
3141;SDS011;1581;51.568;6.998;2022-12-10T07:41:07;94.60;;;35.00;;
3141;SDS011;1581;51.568;6.998;2022-12-10T07:43:39;91.67;;;37.53;;
3141;SDS011;1581;51.568;6.998;2022-12-10T07:46:09;105.93;;;38.90;;
3141;SDS011;1581;51.568;6.998;2022-12-10T07:48:40;100.20;;;36.63;;
3141;SDS011;1581;51.568;6.998;2022-12-10T07:51:10;103.67;;;38.33;;
3141;SDS011;1581;51.568;6.998;2022-12-10T07:53:39;113.00;;;40.07;;
3141;SDS011;1581;51.568;6.998;2022-12-10T07:56:08;121.07;;;40.20;;
3141;SDS011;1581;51.568;6.998;2022-12-10T07:58:35;122.43;;;41.40;;
3141;SDS011;1581;51.568;6.998;2022-12-10T08:01:06;117.27;;;40.10;;
3141;SDS011;1581;51.568;6.998;2022-12-10T08:03:35;125.13;;;41.20;;
3141;SDS011;1581;51.568;6.998;2022-12-10T08:06:04;130.73;;;44.20;;
3141;SDS011;1581;51.568;6.998;2022-12-10T08:08:35;118.50;;;43.67;;
3141;SDS011;1581;51.568;6.998;2022-12-10T08:11:04;120.50;;;45.13;;
3141;SDS011;1581;51.568;6.998;2022-12-10T08:13:34;121.10;;;45.97;;
3141;SDS011;1581;51.568;6.998;2022-12-10T08:16:03;134.67;;;46.43;;
3141;SDS011;1581;51.568;6.998;2022-12-10T08:18:33;125.83;;;46.90;;
3141;SDS011;1581;51.568;6.998;2022-12-10T08:21:03;133.03;;;45.80;;
3141;SDS011;1581;51.568;6.998;2022-12-10T08:23:31;139.50;;;48.20;;
3141;SDS011;1581;51.568;6.998;2022-12-10T08:26:01;145.70;;;47.63;;
3141;SDS011;1581;51.568;6.998;2022-12-10T08:28:30;139.47;;;49.70;;
3141;SDS011;1581;51.568;6.998;2022-12-10T08:31:00;151.43;;;50.70;;
3141;SDS011;1581;51.568;6.998;2022-12-10T08:33:28;131.53;;;46.00;;
3141;SDS011;1581;51.568;6.998;2022-12-10T08:35:58;129.90;;;49.70;;
3141;SDS011;1581;51.568;6.998;2022-12-10T08:38:26;134.80;;;47.17;;
3141;SDS011;1581;51.568;6.998;2022-12-10T08:40:55;116.87;;;45.10;;
3141;SDS011;1581;51.568;6.998;2022-12-10T08:43:23;114.07;;;45.27;;
3141;SDS011;1581;51.568;6.998;2022-12-10T08:45:51;123.77;;;45.53;;
3141;SDS011;1581;51.568;6.998;2022-12-10T08:48:21;124.53;;;48.73;;
3141;SDS011;1581;51.568;6.998;2022-12-10T08:50:49;129.50;;;47.40;;
3141;SDS011;1581;51.568;6.998;2022-12-10T08:53:18;127.90;;;49.93;;
3141;SDS011;1581;51.568;6.998;2022-12-10T08:55:48;121.80;;;46.67;;
3141;SDS011;1581;51.568;6.998;2022-12-10T08:58:20;117.67;;;45.80;;
3141;SDS011;1581;51.568;6.998;2022-12-10T09:00:47;115.70;;;45.23;;
3141;SDS011;1581;51.568;6.998;2022-12-10T09:03:15;119.30;;;45.60;;
3141;SDS011;1581;51.568;6.998;2022-12-10T09:05:44;139.07;;;46.80;;
3141;SDS011;1581;51.568;6.998;2022-12-10T09:08:12;132.23;;;45.63;;
3141;SDS011;1581;51.568;6.998;2022-12-10T09:10:40;117.33;;;44.20;;
3141;SDS011;1581;51.568;6.998;2022-12-10T09:13:08;123.80;;;45.30;;
3141;SDS011;1581;51.568;6.998;2022-12-10T09:15:36;115.53;;;45.20;;
3141;SDS011;1581;51.568;6.998;2022-12-10T09:18:03;111.40;;;45.03;;
3141;SDS011;1581;51.568;6.998;2022-12-10T09:20:31;112.73;;;44.17;;
3141;SDS011;1581;51.568;6.998;2022-12-10T09:23:01;126.90;;;45.87;;
3141;SDS011;1581;51.568;6.998;2022-12-10T09:25:29;137.20;;;48.07;;
3141;SDS011;1581;51.568;6.998;2022-12-10T09:27:57;126.50;;;46.93;;
3141;SDS011;1581;51.568;6.998;2022-12-10T09:30:24;129.37;;;48.50;;
3141;SDS011;1581;51.568;6.998;2022-12-10T09:32:52;137.07;;;48.20;;
3141;SDS011;1581;51.568;6.998;2022-12-10T09:35:20;119.03;;;46.90;;
3141;SDS011;1581;51.568;6.998;2022-12-10T09:37:48;114.83;;;44.97;;
3141;SDS011;1581;51.568;6.998;2022-12-10T09:40:17;115.57;;;45.73;;
3141;SDS011;1581;51.568;6.998;2022-12-10T09:42:54;128.33;;;46.40;;
3141;SDS011;1581;51.568;6.998;2022-12-10T09:45:29;107.50;;;46.83;;
3141;SDS011;1581;51.568;6.998;2022-12-10T09:48:10;114.27;;;45.80;;
3141;SDS011;1581;51.568;6.998;2022-12-10T09:50:49;98.87;;;42.03;;
3141;SDS011;1581;51.568;6.998;2022-12-10T09:53:25;105.07;;;42.87;;
3141;SDS011;1581;51.568;6.998;2022-12-10T09:55:56;111.40;;;44.60;;
3141;SDS011;1581;51.568;6.998;2022-12-10T09:58:25;117.77;;;44.90;;
3141;SDS011;1581;51.568;6.998;2022-12-10T10:00:55;103.87;;;43.17;;
3141;SDS011;1581;51.568;6.998;2022-12-10T10:03:27;107.00;;;45.23;;
3141;SDS011;1581;51.568;6.998;2022-12-10T10:06:03;116.80;;;44.93;;
3141;SDS011;1581;51.568;6.998;2022-12-10T10:08:33;111.80;;;44.67;;
3141;SDS011;1581;51.568;6.998;2022-12-10T10:11:08;106.77;;;46.13;;
3141;SDS011;1581;51.568;6.998;2022-12-10T10:13:43;100.93;;;43.37;;
3141;SDS011;1581;51.568;6.998;2022-12-10T10:16:20;87.93;;;40.83;;
3141;SDS011;1581;51.568;6.998;2022-12-10T10:18:52;98.20;;;41.07;;
3141;SDS011;1581;51.568;6.998;2022-12-10T10:21:25;103.90;;;42.53;;
3141;SDS011;1581;51.568;6.998;2022-12-10T10:23:55;102.17;;;44.60;;
3141;SDS011;1581;51.568;6.998;2022-12-10T10:26:25;110.20;;;44.10;;
3141;SDS011;1581;51.568;6.998;2022-12-10T10:28:55;97.87;;;43.07;;
3141;SDS011;1581;51.568;6.998;2022-12-10T10:31:26;96.53;;;41.10;;
3141;SDS011;1581;51.568;6.998;2022-12-10T10:33:57;84.33;;;38.20;;
3141;SDS011;1581;51.568;6.998;2022-12-10T10:36:27;106.13;;;42.20;;
3141;SDS011;1581;51.568;6.998;2022-12-10T10:39:06;97.63;;;42.67;;
3141;SDS011;1581;51.568;6.998;2022-12-10T10:41:44;86.93;;;39.90;;
3141;SDS011;1581;51.568;6.998;2022-12-10T10:44:18;101.80;;;40.60;;
3141;SDS011;1581;51.568;6.998;2022-12-10T10:46:58;84.47;;;37.30;;
3141;SDS011;1581;51.568;6.998;2022-12-10T10:50:24;73.87;;;36.13;;
3141;SDS011;1581;51.568;6.998;2022-12-10T10:55:56;83.80;;;37.67;;
3141;SDS011;1581;51.568;6.998;2022-12-10T10:58:34;90.43;;;40.13;;
3141;SDS011;1581;51.568;6.998;2022-12-10T11:01:10;89.47;;;38.40;;
3141;SDS011;1581;51.568;6.998;2022-12-10T11:03:44;83.60;;;36.53;;
3141;SDS011;1581;51.568;6.998;2022-12-10T11:06:16;82.40;;;36.60;;
3141;SDS011;1581;51.568;6.998;2022-12-10T11:08:45;82.00;;;38.63;;
3141;SDS011;1581;51.568;6.998;2022-12-10T11:11:17;95.67;;;41.30;;
3141;SDS011;1581;51.568;6.998;2022-12-10T11:13:50;86.67;;;36.83;;
3141;SDS011;1581;51.568;6.998;2022-12-10T11:16:38;95.90;;;39.93;;
3141;SDS011;1581;51.568;6.998;2022-12-10T11:19:07;93.33;;;40.60;;
3141;SDS011;1581;51.568;6.998;2022-12-10T11:21:47;101.60;;;39.93;;
3141;SDS011;1581;51.568;6.998;2022-12-10T11:24:16;90.10;;;38.60;;
3141;SDS011;1581;51.568;6.998;2022-12-10T11:26:49;91.67;;;40.80;;
3141;SDS011;1581;51.568;6.998;2022-12-10T11:29:31;105.53;;;43.90;;
3141;SDS011;1581;51.568;6.998;2022-12-10T11:32:26;97.30;;;39.93;;
3141;SDS011;1581;51.568;6.998;2022-12-10T11:35:17;86.83;;;38.23;;
3141;SDS011;1581;51.568;6.998;2022-12-10T11:38:10;88.73;;;38.03;;
3141;SDS011;1581;51.568;6.998;2022-12-10T11:40:52;90.63;;;37.50;;
3141;SDS011;1581;51.568;6.998;2022-12-10T11:43:39;94.10;;;39.87;;
3141;SDS011;1581;51.568;6.998;2022-12-10T11:46:23;84.80;;;37.60;;
3141;SDS011;1581;51.568;6.998;2022-12-10T11:49:11;78.63;;;35.07;;
3141;SDS011;1581;51.568;6.998;2022-12-10T11:51:51;81.83;;;37.10;;
3141;SDS011;1581;51.568;6.998;2022-12-10T11:54:33;81.67;;;37.20;;
3141;SDS011;1581;51.568;6.998;2022-12-10T11:57:16;77.07;;;35.17;;
3141;SDS011;1581;51.568;6.998;2022-12-10T11:59:53;83.47;;;35.90;;
3141;SDS011;1581;51.568;6.998;2022-12-10T12:02:47;77.17;;;34.87;;
3141;SDS011;1581;51.568;6.998;2022-12-10T12:05:42;73.63;;;34.63;;
3141;SDS011;1581;51.568;6.998;2022-12-10T12:08:29;71.43;;;36.33;;
3141;SDS011;1581;51.568;6.998;2022-12-10T12:11:08;78.03;;;36.03;;
3141;SDS011;1581;51.568;6.998;2022-12-10T12:14:04;73.13;;;31.27;;
3141;SDS011;1581;51.568;6.998;2022-12-10T12:16:40;81.47;;;34.90;;
3141;SDS011;1581;51.568;6.998;2022-12-10T12:19:31;90.63;;;34.80;;
3141;SDS011;1581;51.568;6.998;2022-12-10T12:22:06;76.17;;;36.17;;
3141;SDS011;1581;51.568;6.998;2022-12-10T12:24:41;64.00;;;32.07;;
3141;SDS011;1581;51.568;6.998;2022-12-10T12:27:15;72.40;;;31.90;;
3141;SDS011;1581;51.568;6.998;2022-12-10T12:29:55;68.33;;;32.87;;
3141;SDS011;1581;51.568;6.998;2022-12-10T12:32:31;73.83;;;35.00;;
3141;SDS011;1581;51.568;6.998;2022-12-10T12:35:14;73.60;;;34.17;;
3141;SDS011;1581;51.568;6.998;2022-12-10T12:37:48;71.63;;;34.10;;
3141;SDS011;1581;51.568;6.998;2022-12-10T12:40:25;72.90;;;35.53;;
3141;SDS011;1581;51.568;6.998;2022-12-10T12:42:58;64.10;;;31.20;;
3141;SDS011;1581;51.568;6.998;2022-12-10T12:45:31;68.57;;;32.63;;
3141;SDS011;1581;51.568;6.998;2022-12-10T12:48:09;68.80;;;31.53;;
3141;SDS011;1581;51.568;6.998;2022-12-10T12:50:47;68.33;;;30.57;;
3141;SDS011;1581;51.568;6.998;2022-12-10T12:53:21;61.73;;;31.40;;
3141;SDS011;1581;51.568;6.998;2022-12-10T12:55:54;67.63;;;31.50;;
3141;SDS011;1581;51.568;6.998;2022-12-10T12:58:34;63.07;;;30.17;;
3141;SDS011;1581;51.568;6.998;2022-12-10T13:01:12;53.17;;;28.60;;
3141;SDS011;1581;51.568;6.998;2022-12-10T13:03:51;53.80;;;27.60;;
3141;SDS011;1581;51.568;6.998;2022-12-10T13:06:25;66.80;;;26.60;;
3141;SDS011;1581;51.568;6.998;2022-12-10T13:15:14;61.13;;;28.30;;
3141;SDS011;1581;51.568;6.998;2022-12-10T13:24:09;51.80;;;23.90;;
3141;SDS011;1581;51.568;6.998;2022-12-10T13:26:41;50.27;;;24.07;;
3141;SDS011;1581;51.568;6.998;2022-12-10T13:29:42;60.17;;;25.13;;
3141;SDS011;1581;51.568;6.998;2022-12-10T13:32:14;44.80;;;24.57;;
3141;SDS011;1581;51.568;6.998;2022-12-10T13:34:44;54.20;;;25.37;;
3141;SDS011;1581;51.568;6.998;2022-12-10T13:37:18;45.03;;;25.53;;
3141;SDS011;1581;51.568;6.998;2022-12-10T13:40:13;47.33;;;26.03;;
3141;SDS011;1581;51.568;6.998;2022-12-10T13:42:55;59.43;;;26.07;;
3141;SDS011;1581;51.568;6.998;2022-12-10T13:45:43;48.53;;;24.93;;
3141;SDS011;1581;51.568;6.998;2022-12-10T13:54:07;54.40;;;27.50;;
3141;SDS011;1581;51.568;6.998;2022-12-10T13:56:52;44.97;;;25.30;;
3141;SDS011;1581;51.568;6.998;2022-12-10T13:59:33;52.10;;;24.73;;
3141;SDS011;1581;51.568;6.998;2022-12-10T14:02:19;52.50;;;25.27;;
3141;SDS011;1581;51.568;6.998;2022-12-10T14:05:27;53.70;;;26.50;;
3141;SDS011;1581;51.568;6.998;2022-12-10T14:08:16;62.30;;;27.33;;
3141;SDS011;1581;51.568;6.998;2022-12-10T14:10:52;48.63;;;23.67;;
3141;SDS011;1581;51.568;6.998;2022-12-10T14:13:24;55.03;;;28.10;;
3141;SDS011;1581;51.568;6.998;2022-12-10T14:15:58;53.63;;;26.97;;
3141;SDS011;1581;51.568;6.998;2022-12-10T14:18:30;52.80;;;25.73;;
3141;SDS011;1581;51.568;6.998;2022-12-10T14:20:58;52.80;;;26.93;;
3141;SDS011;1581;51.568;6.998;2022-12-10T14:23:33;56.20;;;26.17;;
3141;SDS011;1581;51.568;6.998;2022-12-10T14:26:09;52.63;;;27.50;;
3141;SDS011;1581;51.568;6.998;2022-12-10T14:28:41;48.30;;;24.60;;
3141;SDS011;1581;51.568;6.998;2022-12-10T14:31:12;48.97;;;26.00;;
3141;SDS011;1581;51.568;6.998;2022-12-10T14:33:45;48.20;;;24.23;;
3141;SDS011;1581;51.568;6.998;2022-12-10T14:36:19;43.87;;;23.27;;
3141;SDS011;1581;51.568;6.998;2022-12-10T14:38:59;52.17;;;24.80;;
3141;SDS011;1581;51.568;6.998;2022-12-10T14:41:33;49.07;;;26.07;;
3141;SDS011;1581;51.568;6.998;2022-12-10T14:44:12;56.07;;;27.93;;
3141;SDS011;1581;51.568;6.998;2022-12-10T14:46:43;56.87;;;28.37;;
3141;SDS011;1581;51.568;6.998;2022-12-10T14:49:13;57.77;;;29.17;;
3141;SDS011;1581;51.568;6.998;2022-12-10T14:51:48;60.20;;;27.70;;
3141;SDS011;1581;51.568;6.998;2022-12-10T14:54:27;55.70;;;28.67;;
3141;SDS011;1581;51.568;6.998;2022-12-10T14:57:01;50.20;;;26.70;;
3141;SDS011;1581;51.568;6.998;2022-12-10T14:59:48;53.60;;;28.90;;
3141;SDS011;1581;51.568;6.998;2022-12-10T15:02:24;60.20;;;30.03;;
3141;SDS011;1581;51.568;6.998;2022-12-10T15:05:01;59.17;;;30.17;;
3141;SDS011;1581;51.568;6.998;2022-12-10T15:07:38;61.53;;;31.67;;
3141;SDS011;1581;51.568;6.998;2022-12-10T15:10:23;58.90;;;29.80;;
3141;SDS011;1581;51.568;6.998;2022-12-10T15:12:56;61.77;;;30.23;;
3141;SDS011;1581;51.568;6.998;2022-12-10T15:15:28;63.17;;;29.50;;
3141;SDS011;1581;51.568;6.998;2022-12-10T15:18:00;54.80;;;30.37;;
3141;SDS011;1581;51.568;6.998;2022-12-10T15:20:38;62.13;;;30.97;;
3141;SDS011;1581;51.568;6.998;2022-12-10T15:23:18;58.00;;;29.90;;
3141;SDS011;1581;51.568;6.998;2022-12-10T15:25:52;59.10;;;30.33;;
3141;SDS011;1581;51.568;6.998;2022-12-10T15:28:30;61.80;;;31.37;;
3141;SDS011;1581;51.568;6.998;2022-12-10T15:31:09;68.67;;;31.33;;
3141;SDS011;1581;51.568;6.998;2022-12-10T15:33:41;65.73;;;30.60;;
3141;SDS011;1581;51.568;6.998;2022-12-10T15:36:16;68.37;;;31.10;;
3141;SDS011;1581;51.568;6.998;2022-12-10T15:38:52;57.00;;;27.60;;
3141;SDS011;1581;51.568;6.998;2022-12-10T15:44:18;56.40;;;26.73;;
3141;SDS011;1581;51.568;6.998;2022-12-10T15:46:58;52.33;;;27.37;;
3141;SDS011;1581;51.568;6.998;2022-12-10T15:49:28;57.97;;;28.73;;
3141;SDS011;1581;51.568;6.998;2022-12-10T15:51:58;60.63;;;28.23;;